Time;durP1;ratioP1;P1;durP2;ratioP2;P2;SDS_P1;SDS_P2;PMS_P1;PMS_P2;Temp;Humidity;BMP_temperature;BMP_pressure;BME280_temperature;BME280_humidity;BME280_pressure;Samples;Min_cycle;Max_cycle;Signal;HPM_P1;HPM_P2
2021/01/28 00:00:36;;;;;;;2.30;2.10;;;19.20;50.50;;;;;;5032505;28;22493;-68
2021/01/28 00:03:03;;;;;;;1.57;1.47;;;19.20;50.90;;;;;;5030509;28;20479;-68
2021/01/28 00:05:31;;;;;;;1.77;1.60;;;19.20;50.60;;;;;;5035784;28;20485;-69
2021/01/28 00:07:57;;;;;;;1.63;1.63;;;19.20;50.10;;;;;;5036977;28;20479;-69
2021/01/28 00:10:25;;;;;;;2.00;1.90;;;19.20;50.10;;;;;;5035789;28;20483;-69
2021/01/28 00:12:51;;;;;;;4.40;1.93;;;19.20;51.00;;;;;;5033456;28;20509;-69
2021/01/28 00:15:18;;;;;;;2.00;1.90;;;19.20;50.90;;;;;;5031006;28;20486;-68
2021/01/28 00:17:45;;;;;;;1.77;1.73;;;19.20;51.30;;;;;;5031228;28;20497;-70
2021/01/28 00:20:13;;;;;;;1.80;1.70;;;19.20;50.90;;;;;;5036858;28;20478;-69
2021/01/28 00:22:39;;;;;;;2.30;2.13;;;19.20;50.70;;;;;;5030702;28;20481;-69
2021/01/28 00:25:07;;;;;;;4.13;1.87;;;19.20;51.10;;;;;;5034841;28;20479;-68
2021/01/28 00:27:34;;;;;;;1.53;1.30;;;19.20;50.90;;;;;;5029627;28;20495;-68
2021/01/28 00:30:00;;;;;;;1.87;1.73;;;19.10;51.00;;;;;;5034058;28;20487;-68
2021/01/28 00:32:26;;;;;;;1.97;1.87;;;19.20;51.50;;;;;;5031572;28;20482;-69
2021/01/28 00:34:52;;;;;;;2.10;1.80;;;19.20;50.90;;;;;;5032870;28;20479;-68
2021/01/28 00:37:19;;;;;;;1.40;1.40;;;19.20;50.50;;;;;;5033515;28;20494;-68
2021/01/28 00:39:45;;;;;;;1.30;1.20;;;19.20;50.30;;;;;;5031050;28;20553;-68
2021/01/28 00:42:11;;;;;;;2.70;1.60;;;19.20;50.20;;;;;;5033108;28;20518;-68
2021/01/28 00:44:38;;;;;;;1.53;1.43;;;19.20;50.50;;;;;;5035657;28;20474;-69
2021/01/28 00:47:05;;;;;;;2.13;1.60;;;19.10;50.20;;;;;;5031905;28;20463;-69
2021/01/28 00:49:31;;;;;;;1.70;1.60;;;19.10;50.30;;;;;;5028208;28;20491;-69
2021/01/28 00:51:57;;;;;;;1.60;1.50;;;19.10;50.10;;;;;;5031864;28;20509;-67
2021/01/28 00:54:23;;;;;;;1.23;1.20;;;19.10;50.30;;;;;;5025501;28;20868;-68
2021/01/28 00:56:49;;;;;;;1.40;1.30;;;19.10;50.40;;;;;;5033201;28;21090;-68
2021/01/28 00:59:16;;;;;;;2.03;1.80;;;19.10;50.30;;;;;;5021489;28;21046;-67
2021/01/28 01:01:43;;;;;;;1.03;1.03;;;19.10;50.30;;;;;;5032068;28;20542;-67
2021/01/28 01:04:09;;;;;;;2.90;1.60;;;19.10;50.50;;;;;;5033216;28;20543;-68
2021/01/28 01:06:35;;;;;;;1.73;1.27;;;19.10;50.40;;;;;;5034915;28;20486;-67
2021/01/28 01:09:02;;;;;;;2.10;1.10;;;19.10;50.50;;;;;;5030439;28;20540;-69
2021/01/28 01:11:28;;;;;;;1.00;1.00;;;19.10;50.70;;;;;;5029613;28;20480;-68
2021/01/28 01:13:54;;;;;;;1.30;1.20;;;19.10;50.60;;;;;;5031375;28;20487;-68
2021/01/28 01:16:20;;;;;;;0.80;0.80;;;19.10;50.70;;;;;;5034648;28;20485;-68
2021/01/28 01:18:47;;;;;;;1.10;1.10;;;19.10;50.90;;;;;;5027084;28;20487;-67
2021/01/28 01:21:13;;;;;;;2.97;1.50;;;19.20;50.80;;;;;;5029348;28;20475;-68
2021/01/28 01:23:39;;;;;;;1.10;1.00;;;19.20;51.00;;;;;;5018384;28;20497;-68
2021/01/28 01:26:05;;;;;;;7.23;1.27;;;19.20;51.10;;;;;;5030344;28;20478;-67
2021/01/28 01:28:32;;;;;;;1.10;1.10;;;19.10;50.70;;;;;;5026990;28;20470;-68
2021/01/28 01:30:58;;;;;;;1.53;0.90;;;19.10;50.70;;;;;;5038836;28;20482;-69
2021/01/28 01:33:24;;;;;;;1.23;1.23;;;19.10;50.40;;;;;;5028352;28;20491;-69
2021/01/28 01:35:51;;;;;;;1.57;1.10;;;19.10;50.30;;;;;;5032173;28;20486;-68
2021/01/28 01:38:17;;;;;;;1.87;1.00;;;19.10;50.40;;;;;;5030926;28;20483;-69
2021/01/28 01:40:45;;;;;;;0.80;0.80;;;19.20;50.70;;;;;;5021743;28;20482;-69
2021/01/28 01:43:13;;;;;;;1.23;1.23;;;19.20;50.30;;;;;;5029905;28;20862;-69
2021/01/28 01:45:45;;;;;;;1.47;1.37;;;19.20;50.20;;;;;;5032838;28;20487;-67
2021/01/28 01:48:15;;;;;;;0.70;0.70;;;19.20;49.90;;;;;;5027514;28;20517;-68
2021/01/28 01:50:48;;;;;;;1.17;1.03;;;19.20;49.90;;;;;;5035075;28;20491;-68
2021/01/28 01:53:18;;;;;;;4.27;1.53;;;19.20;50.30;;;;;;5022428;28;20528;-68
2021/01/28 01:55:46;;;;;;;0.97;0.93;;;19.20;50.50;;;;;;5024136;28;20994;-68
2021/01/28 01:58:12;;;;;;;2.13;0.80;;;19.20;50.30;;;;;;5030632;28;20518;-69
2021/01/28 02:00:39;;;;;;;2.00;1.03;;;19.20;50.50;;;;;;5031061;28;20479;-68
2021/01/28 02:03:07;;;;;;;2.43;1.10;;;19.20;50.40;;;;;;5026036;28;20500;-69
2021/01/28 02:05:35;;;;;;;1.27;1.20;;;19.10;49.80;;;;;;5038803;28;20491;-69
2021/01/28 02:08:01;;;;;;;2.00;1.37;;;19.20;50.20;;;;;;5033479;28;20490;-68
2021/01/28 02:10:28;;;;;;;0.70;0.70;;;19.20;50.10;;;;;;5030688;28;20482;-69
2021/01/28 02:12:54;;;;;;;1.67;0.93;;;19.10;49.70;;;;;;5031964;28;20920;-69
2021/01/28 02:15:21;;;;;;;1.63;0.83;;;19.10;49.80;;;;;;5033492;28;20493;-70
2021/01/28 02:17:49;;;;;;;0.87;0.87;;;19.10;49.80;;;;;;5034991;28;20571;-69
2021/01/28 02:20:34;;;;;;;1.40;1.30;;;19.10;50.00;;;;;;5026934;28;20490;-69
2021/01/28 02:23:03;;;;;;;0.70;0.70;;;19.10;49.60;;;;;;5027394;28;20510;-68
2021/01/28 02:25:31;;;;;;;1.00;1.00;;;19.10;50.10;;;;;;5030434;28;21633;-69
2021/01/28 02:27:59;;;;;;;1.07;0.90;;;19.10;49.70;;;;;;5029878;28;20518;-69
2021/01/28 02:30:27;;;;;;;2.40;1.00;;;19.10;50.00;;;;;;5021082;28;20525;-68
2021/01/28 02:32:53;;;;;;;1.27;1.17;;;19.10;49.90;;;;;;5029398;28;21290;-68
2021/01/28 02:35:20;;;;;;;1.07;1.07;;;19.10;49.80;;;;;;5033164;28;21367;-68
2021/01/28 02:37:46;;;;;;;1.00;1.00;;;19.20;50.00;;;;;;5034837;28;20486;-68
2021/01/28 02:40:13;;;;;;;1.07;0.80;;;19.10;50.00;;;;;;5029484;28;20485;-69
2021/01/28 02:42:40;;;;;;;1.13;0.90;;;19.20;50.00;;;;;;5037854;28;20516;-69
2021/01/28 02:45:08;;;;;;;1.53;1.43;;;19.20;50.10;;;;;;5051430;28;21528;-68
2021/01/28 02:47:34;;;;;;;2.10;1.20;;;19.10;49.70;;;;;;5038284;28;21038;-68
2021/01/28 02:50:00;;;;;;;1.53;1.53;;;19.10;49.40;;;;;;5034237;28;20877;-67
2021/01/28 02:52:26;;;;;;;1.40;1.40;;;19.10;49.40;;;;;;5034202;28;20490;-68
2021/01/28 02:54:53;;;;;;;1.33;1.30;;;19.10;49.60;;;;;;5033237;28;20488;-68
2021/01/28 02:57:20;;;;;;;1.20;1.20;;;19.10;49.50;;;;;;5034845;28;21524;-67
2021/01/28 02:59:47;;;;;;;1.20;1.20;;;19.10;49.50;;;;;;5036589;28;20547;-67
2021/01/28 03:02:14;;;;;;;1.77;1.67;;;19.10;49.40;;;;;;5025791;28;20497;-67
2021/01/28 03:04:40;;;;;;;2.10;1.93;;;19.10;49.40;;;;;;5031542;28;20487;-67
2021/01/28 03:07:07;;;;;;;1.50;1.40;;;19.00;49.30;;;;;;5041621;28;20856;-68
2021/01/28 03:09:33;;;;;;;1.70;1.60;;;19.00;49.10;;;;;;5025380;28;20490;-67
2021/01/28 03:11:59;;;;;;;1.40;1.30;;;19.00;49.30;;;;;;5030023;28;20560;-67
2021/01/28 03:14:25;;;;;;;1.10;1.00;;;19.00;49.30;;;;;;5035101;28;20487;-67
2021/01/28 03:16:52;;;;;;;2.13;1.90;;;19.00;49.30;;;;;;5033355;28;20491;-68
2021/01/28 03:19:19;;;;;;;2.83;1.97;;;19.00;49.20;;;;;;5035148;28;21017;-67
2021/01/28 03:21:45;;;;;;;2.00;1.90;;;19.00;49.20;;;;;;5033770;28;21517;-67
2021/01/28 03:24:11;;;;;;;1.80;1.70;;;19.00;49.60;;;;;;5037421;28;20490;-69
2021/01/28 03:26:38;;;;;;;1.60;1.50;;;19.00;49.20;;;;;;5034399;28;20494;-68
2021/01/28 03:29:04;;;;;;;1.43;1.40;;;19.00;49.30;;;;;;5034664;28;20490;-68
2021/01/28 03:31:30;;;;;;;1.73;1.73;;;19.00;49.20;;;;;;5035177;28;20939;-70
2021/01/28 03:33:57;;;;;;;1.70;1.60;;;19.00;49.30;;;;;;5034921;28;20487;-70
2021/01/28 03:36:24;;;;;;;1.60;1.50;;;19.00;49.00;;;;;;5035403;28;20479;-69
2021/01/28 03:38:50;;;;;;;1.40;1.40;;;19.10;49.10;;;;;;5035735;28;20490;-69
2021/01/28 03:41:16;;;;;;;1.57;1.47;;;19.10;48.90;;;;;;5034272;28;20478;-68
2021/01/28 03:43:42;;;;;;;2.10;2.00;;;19.20;48.90;;;;;;5029541;28;21025;-69
2021/01/28 03:46:08;;;;;;;1.17;1.17;;;19.20;49.00;;;;;;5021135;28;21058;-69
2021/01/28 03:48:36;;;;;;;1.23;1.23;;;19.10;48.90;;;;;;5031677;28;20518;-69
2021/01/28 03:51:03;;;;;;;1.30;1.20;;;19.10;49.30;;;;;;5034365;28;20479;-69
2021/01/28 03:53:29;;;;;;;1.50;1.40;;;19.10;49.40;;;;;;5032042;28;20495;-69
2021/01/28 03:55:55;;;;;;;1.70;1.60;;;19.10;49.10;;;;;;5033845;28;20482;-69
2021/01/28 03:58:21;;;;;;;1.50;1.40;;;19.10;49.00;;;;;;5034970;28;20478;-69
2021/01/28 04:00:48;;;;;;;1.33;1.33;;;19.10;48.90;;;;;;5032097;28;20540;-69
2021/01/28 04:03:14;;;;;;;1.60;1.50;;;19.10;48.90;;;;;;5034103;28;20486;-68
2021/01/28 04:05:40;;;;;;;1.23;1.13;;;19.10;49.20;;;;;;5032814;28;20476;-69
2021/01/28 04:08:07;;;;;;;1.50;1.50;;;19.10;49.10;;;;;;5036810;28;20466;-69
2021/01/28 04:10:35;;;;;;;0.93;0.93;;;19.10;49.20;;;;;;5036791;28;20483;-69
2021/01/28 04:13:01;;;;;;;1.60;1.50;;;19.10;48.80;;;;;;5033120;28;20467;-69
2021/01/28 04:15:27;;;;;;;1.13;1.10;;;19.10;49.20;;;;;;5037793;28;20513;-69
2021/01/28 04:17:53;;;;;;;1.87;1.40;;;19.10;49.30;;;;;;5032197;28;20497;-69
2021/01/28 04:20:20;;;;;;;1.20;1.20;;;19.20;49.40;;;;;;5026600;28;20512;-69
2021/01/28 04:22:47;;;;;;;2.13;1.43;;;19.20;49.20;;;;;;5044405;28;20824;-68
2021/01/28 04:25:14;;;;;;;1.17;1.17;;;19.20;49.20;;;;;;5023277;28;20490;-69
2021/01/28 04:27:40;;;;;;;1.20;1.20;;;19.20;49.10;;;;;;5017099;28;20482;-68
2021/01/28 04:30:07;;;;;;;1.10;1.10;;;19.30;49.20;;;;;;5021845;28;20494;-68
2021/01/28 04:32:34;;;;;;;1.50;1.40;;;19.30;49.10;;;;;;5030573;28;20831;-68
2021/01/28 04:35:00;;;;;;;0.90;0.90;;;19.30;49.20;;;;;;5032080;28;20533;-69
2021/01/28 04:37:26;;;;;;;1.30;1.30;;;19.30;48.90;;;;;;5037799;28;20532;-69
2021/01/28 04:39:52;;;;;;;1.50;1.40;;;19.30;48.80;;;;;;5033028;28;20480;-69
2021/01/28 04:42:21;;;;;;;2.17;1.67;;;19.30;48.60;;;;;;5038542;28;20478;-68
2021/01/28 04:44:47;;;;;;;1.30;1.30;;;19.20;48.80;;;;;;5024476;28;21988;-68
2021/01/28 04:47:15;;;;;;;1.20;1.20;;;19.20;48.80;;;;;;5035297;28;20494;-68
2021/01/28 04:49:43;;;;;;;0.80;0.80;;;19.20;48.90;;;;;;5035520;28;20483;-69
2021/01/28 04:52:09;;;;;;;0.90;0.90;;;19.10;48.80;;;;;;5036731;28;20479;-69
2021/01/28 04:54:35;;;;;;;1.00;1.00;;;19.20;48.80;;;;;;5031567;28;20488;-68
2021/01/28 04:57:04;;;;;;;1.30;1.20;;;19.20;48.80;;;;;;5033232;28;20525;-68
2021/01/28 04:59:32;;;;;;;1.23;1.23;;;19.20;48.70;;;;;;5031153;28;20577;-68
2021/01/28 05:01:59;;;;;;;0.97;0.97;;;19.20;48.60;;;;;;5029398;28;20490;-67
2021/01/28 05:04:32;;;;;;;1.07;1.07;;;19.20;48.60;;;;;;5035538;28;20487;-66
2021/01/28 05:06:58;;;;;;;1.07;1.00;;;19.20;48.60;;;;;;5032806;28;20474;-67
2021/01/28 05:09:24;;;;;;;0.87;0.87;;;19.10;48.40;;;;;;5032975;28;20495;-68
2021/01/28 05:11:52;;;;;;;1.07;1.07;;;19.10;48.60;;;;;;5032957;28;20494;-68
2021/01/28 05:14:20;;;;;;;1.10;1.10;;;19.10;48.50;;;;;;5034136;28;20568;-68
2021/01/28 05:16:47;;;;;;;1.03;1.03;;;19.10;48.50;;;;;;5029107;28;20481;-68
2021/01/28 05:19:38;;;;;;;1.00;1.00;;;19.20;48.70;;;;;;5032447;28;20466;-68
2021/01/28 05:22:06;;;;;;;0.90;0.90;;;19.20;48.50;;;;;;5034266;28;20482;-68
2021/01/28 05:24:36;;;;;;;1.20;1.20;;;19.20;48.40;;;;;;5031352;28;20592;-67
2021/01/28 05:27:16;;;;;;;0.90;0.70;;;19.20;48.30;;;;;;5033307;28;20502;-68
2021/01/28 05:29:43;;;;;;;0.90;0.90;;;19.20;48.20;;;;;;5034218;28;21220;-67
2021/01/28 05:32:15;;;;;;;0.90;0.90;;;19.20;48.10;;;;;;5036315;28;20478;-66
2021/01/28 05:34:42;;;;;;;1.40;1.00;;;19.20;48.10;;;;;;5032517;28;20849;-68
2021/01/28 05:37:10;;;;;;;2.57;1.40;;;19.20;48.00;;;;;;5034419;28;20900;-67
2021/01/28 05:39:37;;;;;;;0.97;0.97;;;19.20;47.90;;;;;;5030517;28;20491;-67
2021/01/28 05:42:11;;;;;;;1.10;1.10;;;19.20;47.90;;;;;;5017123;28;20480;-68
2021/01/28 05:44:38;;;;;;;0.87;0.87;;;19.20;47.70;;;;;;5033018;28;20478;-67
2021/01/28 05:47:06;;;;;;;1.07;0.80;;;19.20;47.60;;;;;;5031793;28;20483;-67
2021/01/28 05:49:34;;;;;;;1.00;1.00;;;19.20;47.50;;;;;;5029944;28;20482;-68
2021/01/28 05:52:12;;;;;;;0.80;0.80;;;19.20;47.50;;;;;;5033127;28;21032;-67
2021/01/28 05:54:38;;;;;;;0.93;0.93;;;19.20;47.50;;;;;;5027434;28;20479;-68
2021/01/28 05:57:07;;;;;;;0.90;0.90;;;19.20;47.60;;;;;;5049295;28;20567;-68
2021/01/28 05:59:36;;;;;;;1.00;1.00;;;19.20;47.60;;;;;;5033157;28;20496;-68
2021/01/28 06:02:09;;;;;;;1.47;1.10;;;19.20;47.40;;;;;;5034276;28;20483;-68
2021/01/28 06:04:57;;;;;;;1.00;1.00;;;19.20;47.10;;;;;;5035701;28;20492;-68
2021/01/28 06:07:31;;;;;;;1.57;1.30;;;19.20;47.10;;;;;;5034049;28;20486;-68
2021/01/28 06:10:17;;;;;;;1.23;1.23;;;19.20;46.90;;;;;;5031817;28;20573;-69
2021/01/28 06:12:52;;;;;;;1.10;1.10;;;19.20;46.50;;;;;;5031178;28;20478;-69
2021/01/28 06:15:26;;;;;;;1.07;1.07;;;19.20;45.90;;;;;;5030631;28;20470;-67
2021/01/28 06:18:23;;;;;;;5.73;3.10;;;19.30;46.20;;;;;;5031975;28;20568;-69
2021/01/28 06:21:21;;;;;;;2.00;1.40;;;19.20;46.40;;;;;;5021959;28;20478;-68
2021/01/28 06:23:56;;;;;;;2.47;2.00;;;19.20;45.90;;;;;;4999081;28;20479;-68
2021/01/28 06:26:30;;;;;;;3.03;1.33;;;19.20;45.70;;;;;;5029184;28;20473;-68
2021/01/28 06:29:08;;;;;;;3.00;0.90;;;19.20;45.50;;;;;;5029344;28;20494;-68
2021/01/28 06:31:40;;;;;;;0.90;0.90;;;19.30;45.90;;;;;;5032083;28;20494;-68
2021/01/28 06:34:22;;;;;;;0.80;0.80;;;19.30;46.00;;;;;;5030631;28;21069;-67
2021/01/28 06:37:25;;;;;;;0.70;0.70;;;19.30;46.00;;;;;;5023593;28;20482;-68
2021/01/28 06:39:51;;;;;;;0.60;0.60;;;19.30;46.00;;;;;;4960395;28;20489;-69
2021/01/28 06:42:22;;;;;;;0.80;0.80;;;19.40;46.30;;;;;;5007766;28;20483;-70
2021/01/28 06:44:51;;;;;;;0.60;0.60;;;19.40;46.30;;;;;;5021347;28;20829;-70
2021/01/28 06:47:18;;;;;;;1.17;0.70;;;19.50;46.20;;;;;;5024369;28;20524;-68
2021/01/28 06:49:49;;;;;;;0.80;0.80;;;19.50;46.20;;;;;;5026269;28;20492;-68
2021/01/28 06:52:28;;;;;;;0.80;0.57;;;19.60;46.30;;;;;;5031267;28;20558;-68
2021/01/28 06:54:55;;;;;;;0.60;0.60;;;19.60;46.30;;;;;;5028880;28;20872;-68
2021/01/28 06:57:26;;;;;;;0.80;0.80;;;19.50;46.20;;;;;;5028512;28;20491;-68
2021/01/28 07:00:00;;;;;;;0.57;0.57;;;19.50;46.70;;;;;;5032048;28;20733;-69
2021/01/28 07:02:40;;;;;;;0.80;0.80;;;19.50;46.90;;;;;;5031347;28;20479;-68
2021/01/28 07:05:45;;;;;;;0.70;0.70;;;19.50;47.00;;;;;;5031569;28;20493;-68
2021/01/28 07:08:19;;;;;;;0.67;0.67;;;19.50;47.10;;;;;;4998762;28;20484;-68
2021/01/28 07:10:45;;;;;;;0.70;0.70;;;19.50;47.00;;;;;;5032640;28;20897;-68
2021/01/28 07:13:12;;;;;;;0.70;0.70;;;19.50;47.30;;;;;;5031660;28;20487;-69
2021/01/28 07:15:38;;;;;;;0.70;0.70;;;19.50;47.20;;;;;;5033507;28;20517;-69
2021/01/28 07:18:06;;;;;;;1.73;0.73;;;19.50;47.30;;;;;;5030633;28;20487;-69
2021/01/28 07:20:33;;;;;;;0.67;0.67;;;19.50;47.00;;;;;;5035682;28;21097;-69
2021/01/28 07:23:23;;;;;;;0.70;0.70;;;19.50;46.90;;;;;;5033829;28;20483;-69
2021/01/28 07:25:50;;;;;;;0.60;0.60;;;19.50;47.00;;;;;;5026499;28;20467;-68
2021/01/28 07:28:27;;;;;;;0.90;0.80;;;19.50;46.90;;;;;;5016054;28;20469;-69
2021/01/28 07:31:07;;;;;;;1.10;0.97;;;19.50;46.90;;;;;;5037378;28;20552;-69
2021/01/28 07:33:34;;;;;;;0.60;0.60;;;19.50;46.90;;;;;;5028389;28;20494;-68
2021/01/28 07:36:00;;;;;;;0.70;0.70;;;19.50;46.80;;;;;;5044899;28;20531;-68
2021/01/28 07:38:51;;;;;;;0.70;0.70;;;19.50;47.00;;;;;;5035539;28;20533;-68
2021/01/28 07:41:28;;;;;;;0.70;0.70;;;19.40;47.00;;;;;;5023166;28;20484;-68
2021/01/28 07:44:16;;;;;;;1.33;0.90;;;19.40;47.00;;;;;;5035833;28;20516;-68
2021/01/28 07:46:42;;;;;;;0.50;0.50;;;19.40;47.10;;;;;;5030352;28;21441;-68
2021/01/28 07:49:14;;;;;;;0.70;0.70;;;19.40;47.10;;;;;;5034844;28;20482;-67
2021/01/28 07:51:41;;;;;;;0.90;0.90;;;19.40;47.20;;;;;;5032296;28;20487;-70
2021/01/28 07:54:33;;;;;;;0.70;0.70;;;19.40;47.20;;;;;;5022408;28;20482;-69
2021/01/28 07:56:59;;;;;;;0.60;0.60;;;19.40;47.20;;;;;;5019218;28;20528;-68
2021/01/28 07:59:32;;;;;;;0.70;0.70;;;19.40;47.20;;;;;;5032253;28;20501;-68
2021/01/28 08:01:59;;;;;;;0.87;0.87;;;19.40;47.20;;;;;;5034620;28;20617;-68
2021/01/28 08:04:30;;;;;;;1.73;0.67;;;19.30;47.20;;;;;;5032401;28;21002;-68
2021/01/28 08:06:58;;;;;;;0.60;0.60;;;19.30;47.20;;;;;;5030558;28;20995;-68
2021/01/28 08:09:25;;;;;;;0.90;0.83;;;19.40;47.30;;;;;;5036073;28;20489;-69
2021/01/28 08:11:52;;;;;;;0.70;0.70;;;19.30;47.30;;;;;;5033605;28;20545;-68
2021/01/28 08:14:20;;;;;;;0.77;0.77;;;19.30;47.30;;;;;;5047423;28;21106;-68
2021/01/28 08:16:48;;;;;;;0.90;0.90;;;19.30;47.10;;;;;;5024266;28;20497;-68
2021/01/28 08:19:16;;;;;;;0.70;0.70;;;19.30;47.10;;;;;;5033206;28;20624;-68
2021/01/28 08:21:42;;;;;;;0.70;0.70;;;19.30;47.10;;;;;;5032715;28;20987;-67
2021/01/28 08:24:09;;;;;;;1.03;0.97;;;19.30;47.00;;;;;;5034191;28;20487;-68
2021/01/28 08:26:39;;;;;;;0.60;0.60;;;19.40;47.00;;;;;;5033867;28;20478;-67
2021/01/28 08:29:06;;;;;;;0.90;0.70;;;19.40;47.10;;;;;;5032027;28;20849;-67
2021/01/28 08:31:35;;;;;;;0.80;0.80;;;19.40;47.10;;;;;;5025864;28;20490;-68
2021/01/28 08:34:02;;;;;;;0.70;0.50;;;19.30;47.00;;;;;;5037143;28;20482;-68
2021/01/28 08:36:31;;;;;;;0.60;0.60;;;19.30;47.10;;;;;;5035215;28;20486;-69
2021/01/28 08:39:08;;;;;;;0.70;0.70;;;19.30;47.10;;;;;;5033132;28;20483;-68
2021/01/28 08:41:34;;;;;;;4.00;0.80;;;19.30;47.20;;;;;;5023513;28;20475;-68
2021/01/28 08:44:02;;;;;;;0.70;0.70;;;19.30;47.10;;;;;;5032667;28;20479;-68
2021/01/28 08:46:28;;;;;;;0.73;0.73;;;19.30;47.20;;;;;;5031382;28;21100;-68
2021/01/28 08:49:03;;;;;;;0.60;0.60;;;19.30;47.20;;;;;;5034892;28;20861;-69
2021/01/28 08:51:29;;;;;;;0.90;0.90;;;19.30;47.30;;;;;;5028761;28;20513;-69
2021/01/28 08:54:00;;;;;;;0.63;0.63;;;19.30;47.30;;;;;;5023809;28;20483;-68
2021/01/28 08:56:33;;;;;;;0.70;0.70;;;19.30;47.30;;;;;;5044990;28;20663;-68
2021/01/28 08:59:02;;;;;;;1.77;1.07;;;19.30;47.30;;;;;;5031119;28;20488;-68
2021/01/28 09:01:29;;;;;;;0.80;0.80;;;19.30;47.30;;;;;;5017824;28;20509;-68
2021/01/28 09:04:00;;;;;;;0.70;0.70;;;19.30;47.30;;;;;;5036799;28;20571;-69
2021/01/28 09:06:27;;;;;;;0.70;0.70;;;19.30;47.30;;;;;;5032683;28;20573;-69
2021/01/28 09:09:00;;;;;;;0.60;0.60;;;19.30;47.30;;;;;;5032143;28;20494;-68
2021/01/28 09:11:28;;;;;;;0.70;0.70;;;19.30;47.30;;;;;;5035012;28;20490;-68
2021/01/28 09:14:19;;;;;;;0.83;0.83;;;19.20;47.10;;;;;;5036361;28;20478;-69
2021/01/28 09:16:53;;;;;;;0.60;0.60;;;19.30;47.10;;;;;;5033600;28;21039;-69
2021/01/28 09:19:19;;;;;;;0.77;0.77;;;19.30;47.10;;;;;;5023136;28;20479;-69
2021/01/28 09:21:46;;;;;;;0.63;0.63;;;19.30;47.00;;;;;;5033125;28;20476;-68
2021/01/28 09:24:17;;;;;;;0.60;0.60;;;19.30;47.10;;;;;;5038031;28;20894;-69
2021/01/28 09:26:43;;;;;;;0.73;0.73;;;19.30;47.10;;;;;;5032746;28;20511;-68
2021/01/28 09:29:10;;;;;;;0.50;0.50;;;19.30;47.20;;;;;;5036275;28;21077;-68
2021/01/28 09:31:37;;;;;;;0.67;0.63;;;19.20;47.20;;;;;;5032221;28;20486;-69
2021/01/28 09:34:13;;;;;;;1.17;0.70;;;19.20;47.20;;;;;;5033769;28;20540;-68
2021/01/28 09:36:39;;;;;;;0.60;0.60;;;19.20;47.20;;;;;;5031189;28;21161;-69
2021/01/28 09:39:10;;;;;;;0.63;0.63;;;19.20;47.20;;;;;;5033734;28;20490;-68
2021/01/28 09:41:44;;;;;;;0.60;0.60;;;19.10;47.20;;;;;;5026954;28;20476;-68
2021/01/28 09:44:30;;;;;;;0.60;0.60;;;19.10;47.30;;;;;;5035082;28;20486;-68
2021/01/28 09:47:05;;;;;;;0.50;0.50;;;19.20;47.50;;;;;;5032459;28;20482;-69
2021/01/28 09:49:32;;;;;;;0.70;0.70;;;19.20;47.40;;;;;;5027252;28;20540;-68
2021/01/28 09:51:58;;;;;;;0.63;0.63;;;19.20;47.30;;;;;;5028041;28;20486;-68
2021/01/28 09:54:24;;;;;;;0.70;0.70;;;19.30;47.40;;;;;;5032973;28;20529;-68
2021/01/28 09:56:50;;;;;;;0.73;0.73;;;19.30;47.30;;;;;;5033670;28;20581;-68
2021/01/28 09:59:16;;;;;;;0.73;0.73;;;19.30;47.30;;;;;;5032245;28;20471;-68
2021/01/28 10:01:43;;;;;;;1.17;0.80;;;19.40;47.30;;;;;;5031367;28;20470;-68
2021/01/28 10:04:10;;;;;;;0.70;0.70;;;19.40;47.10;;;;;;5029946;28;20490;-69
2021/01/28 10:06:36;;;;;;;0.60;0.60;;;19.40;47.00;;;;;;5034114;28;20495;-68
2021/01/28 10:09:02;;;;;;;0.70;0.70;;;19.50;46.80;;;;;;5037095;28;20544;-68
2021/01/28 10:11:28;;;;;;;0.80;0.80;;;19.50;46.80;;;;;;5031931;28;20995;-69
2021/01/28 10:13:54;;;;;;;0.57;0.57;;;19.60;46.70;;;;;;5031799;28;20486;-69
2021/01/28 10:16:21;;;;;;;0.70;0.70;;;19.60;46.30;;;;;;5030851;28;20483;-69
2021/01/28 10:18:47;;;;;;;0.50;0.50;;;19.70;46.40;;;;;;5022695;28;20491;-67
2021/01/28 10:21:14;;;;;;;0.70;0.70;;;19.70;46.40;;;;;;5032515;28;20482;-68
2021/01/28 10:23:40;;;;;;;0.73;0.73;;;19.70;46.40;;;;;;5029067;28;20532;-68
2021/01/28 10:26:06;;;;;;;0.57;0.57;;;19.70;46.50;;;;;;5030427;28;20999;-69
2021/01/28 10:28:32;;;;;;;1.00;0.87;;;19.70;46.60;;;;;;5023216;28;20953;-68
2021/01/28 10:30:59;;;;;;;0.70;0.70;;;19.70;46.60;;;;;;5029041;28;21034;-69
2021/01/28 10:33:27;;;;;;;0.87;0.87;;;19.60;46.50;;;;;;5031822;28;20498;-69
2021/01/28 10:35:53;;;;;;;0.50;0.50;;;19.60;46.50;;;;;;5022647;28;20518;-69
2021/01/28 10:38:20;;;;;;;0.70;0.70;;;19.70;47.60;;;;;;5032675;28;20632;-68
2021/01/28 10:40:47;;;;;;;0.60;0.60;;;19.60;46.70;;;;;;5032593;28;20487;-70
2021/01/28 10:43:13;;;;;;;1.57;1.47;;;19.60;46.50;;;;;;5031549;28;20470;-68
2021/01/28 10:45:40;;;;;;;0.70;0.70;;;19.60;46.60;;;;;;5034490;28;20563;-68
2021/01/28 10:48:07;;;;;;;1.20;0.70;;;19.60;46.60;;;;;;5031813;28;20497;-69
2021/01/28 10:50:33;;;;;;;0.63;0.63;;;19.60;46.60;;;;;;5028371;28;20486;-68
2021/01/28 10:53:00;;;;;;;0.60;0.60;;;19.60;46.60;;;;;;5018737;28;20877;-68
2021/01/28 10:55:28;;;;;;;0.90;0.70;;;19.60;46.40;;;;;;5027588;28;20495;-68
2021/01/28 10:57:54;;;;;;;1.33;0.87;;;19.60;46.50;;;;;;5033646;28;20495;-68
2021/01/28 11:00:21;;;;;;;0.70;0.70;;;19.60;46.30;;;;;;5025747;28;20490;-69
2021/01/28 11:02:47;;;;;;;0.60;0.60;;;19.60;46.30;;;;;;5014459;28;20470;-68
2021/01/28 11:05:14;;;;;;;0.77;0.70;;;19.60;46.30;;;;;;5034892;28;20477;-68
2021/01/28 11:07:40;;;;;;;0.50;0.50;;;19.70;46.40;;;;;;5035941;28;20479;-69
2021/01/28 11:10:07;;;;;;;2.20;0.90;;;19.70;46.30;;;;;;5035774;28;20484;-69
2021/01/28 11:12:34;;;;;;;0.50;0.50;;;19.80;46.20;;;;;;5026569;28;20498;-69
2021/01/28 11:15:00;;;;;;;0.80;0.80;;;19.70;46.10;;;;;;5022675;28;20536;-71
2021/01/28 11:17:26;;;;;;;0.60;0.60;;;19.70;46.10;;;;;;5028259;28;21107;-68
2021/01/28 11:19:53;;;;;;;0.60;0.60;;;19.70;46.20;;;;;;5044184;28;21116;-68
2021/01/28 11:22:19;;;;;;;0.90;0.87;;;19.70;46.40;;;;;;5043917;28;20568;-69
2021/01/28 11:24:46;;;;;;;0.50;0.50;;;19.60;47.10;;;;;;5036306;28;20573;-69
2021/01/28 11:27:12;;;;;;;0.67;0.60;;;19.60;46.30;;;;;;5036781;28;21007;-69
2021/01/28 11:29:39;;;;;;;0.60;0.60;;;19.60;46.30;;;;;;5036427;28;20540;-69
2021/01/28 11:32:05;;;;;;;0.70;0.70;;;19.60;46.30;;;;;;5034410;28;20482;-69
2021/01/28 11:34:31;;;;;;;0.67;0.67;;;19.60;46.30;;;;;;5034796;28;20486;-69
2021/01/28 11:36:57;;;;;;;0.80;0.80;;;19.70;46.40;;;;;;5036157;28;20502;-70
2021/01/28 11:39:23;;;;;;;2.10;0.87;;;19.70;46.40;;;;;;5032971;28;20486;-69
2021/01/28 11:41:50;;;;;;;2.00;1.00;;;19.70;46.40;;;;;;5033200;28;20482;-69
2021/01/28 11:44:16;;;;;;;0.90;0.90;;;19.70;46.40;;;;;;5035833;28;20482;-69
2021/01/28 11:46:43;;;;;;;2.40;1.40;;;19.80;46.40;;;;;;5036580;28;20514;-68
2021/01/28 11:49:09;;;;;;;0.70;0.70;;;19.80;46.40;;;;;;5034313;28;21021;-69
2021/01/28 11:51:35;;;;;;;0.90;0.90;;;19.80;46.40;;;;;;5034384;28;20486;-69
2021/01/28 11:54:01;;;;;;;1.93;0.90;;;19.80;46.30;;;;;;5036459;28;20490;-69
2021/01/28 11:56:27;;;;;;;1.00;1.00;;;19.80;46.40;;;;;;5034024;28;20491;-68
2021/01/28 11:58:53;;;;;;;0.90;0.90;;;19.70;46.40;;;;;;5030876;28;21706;-69
2021/01/28 12:01:20;;;;;;;1.90;0.80;;;19.70;46.40;;;;;;5033415;28;20486;-68
2021/01/28 12:03:47;;;;;;;4.30;0.90;;;19.80;46.30;;;;;;5031386;28;20518;-68
2021/01/28 12:06:13;;;;;;;0.87;0.87;;;19.80;46.00;;;;;;5032368;28;20475;-68
2021/01/28 12:08:39;;;;;;;0.80;0.73;;;19.80;45.90;;;;;;5033843;28;20482;-68
2021/01/28 12:11:05;;;;;;;2.00;0.70;;;19.80;45.90;;;;;;5034836;28;20483;-67
2021/01/28 12:13:31;;;;;;;1.40;1.30;;;19.80;46.00;;;;;;5031911;28;20513;-68
2021/01/28 12:15:58;;;;;;;0.93;0.93;;;19.60;46.20;;;;;;5038427;28;20540;-68
2021/01/28 12:18:24;;;;;;;1.20;0.87;;;19.60;46.30;;;;;;5034400;28;21654;-68
2021/01/28 12:20:51;;;;;;;0.87;0.83;;;19.70;46.30;;;;;;5035668;28;20487;-68
2021/01/28 12:23:18;;;;;;;1.53;0.83;;;19.70;46.00;;;;;;5037468;28;20502;-68
2021/01/28 12:25:44;;;;;;;4.23;0.77;;;19.80;45.80;;;;;;5026855;28;20482;-67
2021/01/28 12:28:10;;;;;;;1.23;1.23;;;19.80;45.60;;;;;;5036537;28;20483;-68
2021/01/28 12:30:36;;;;;;;1.43;1.10;;;19.80;45.50;;;;;;5026092;28;20487;-68
2021/01/28 12:33:02;;;;;;;2.00;1.90;;;19.80;45.60;;;;;;5039464;28;20491;-68
2021/01/28 12:35:28;;;;;;;1.87;1.80;;;19.80;45.70;;;;;;5024637;28;20486;-67
2021/01/28 12:37:55;;;;;;;1.63;1.53;;;19.80;45.70;;;;;;5030292;28;20498;-68
2021/01/28 12:40:22;;;;;;;1.63;1.53;;;19.70;45.80;;;;;;5035533;28;20532;-68
2021/01/28 12:42:48;;;;;;;1.20;1.10;;;19.50;46.00;;;;;;5013933;28;20506;-69
2021/01/28 12:45:14;;;;;;;1.20;1.10;;;19.50;47.00;;;;;;5020927;28;20486;-68
2021/01/28 12:47:41;;;;;;;1.80;1.30;;;19.50;46.20;;;;;;5031814;28;20482;-68
2021/01/28 12:50:08;;;;;;;1.10;1.10;;;19.40;46.10;;;;;;5033053;28;20499;-69
2021/01/28 12:52:34;;;;;;;1.23;1.23;;;19.50;46.20;;;;;;5024586;28;20494;-68
2021/01/28 12:55:01;;;;;;;0.93;0.73;;;19.50;46.20;;;;;;5030371;28;20508;-68